createdAt,value
2017-01-07T00:03:10.222Z,0
2017-01-07T00:13:23.473Z,0
2017-01-07T00:23:36.634Z,0
2017-01-07T00:33:49.756Z,0
2017-01-07T00:44:02.844Z,0
2017-01-07T00:54:15.846Z,0
2017-01-07T01:04:28.849Z,0
2017-01-07T01:14:41.825Z,0
2017-01-07T01:24:54.767Z,0
2017-01-07T01:35:07.721Z,0
2017-01-07T01:45:20.576Z,0
2017-01-07T01:55:33.480Z,0
2017-01-07T02:05:46.409Z,0
2017-01-07T02:15:59.255Z,0
2017-01-07T02:26:12.155Z,0
2017-01-07T02:36:24.925Z,0
2017-01-07T02:46:37.703Z,0
2017-01-07T02:56:50.484Z,0
2017-01-07T03:07:03.271Z,0
2017-01-07T03:17:16.071Z,0
2017-01-07T03:27:28.830Z,0
2017-01-07T03:37:41.556Z,0
2017-01-07T03:47:54.330Z,0
2017-01-07T03:58:07.148Z,0
2017-01-07T04:08:19.920Z,0
2017-01-07T04:18:32.648Z,0
2017-01-07T04:28:45.380Z,0
2017-01-07T04:38:58.098Z,0
2017-01-07T04:49:10.915Z,0
2017-01-07T04:59:23.681Z,0
2017-01-07T05:09:36.486Z,0
2017-01-07T05:19:49.284Z,0
2017-01-07T05:30:02.091Z,0
2017-01-07T05:40:14.874Z,0
2017-01-07T05:50:27.667Z,0
2017-01-07T06:00:40.560Z,0
2017-01-07T06:10:53.448Z,0
2017-01-07T06:21:06.370Z,0
2017-01-07T06:31:19.314Z,0
2017-01-07T06:41:32.242Z,0
2017-01-07T06:51:45.150Z,0
2017-01-07T07:01:58.057Z,0
2017-01-07T07:12:10.943Z,0
2017-01-07T07:22:23.944Z,0
2017-01-07T07:32:36.903Z,5
2017-01-07T07:42:49.838Z,10
2017-01-07T07:53:02.666Z,20
2017-01-07T08:03:15.539Z,35
2017-01-07T08:13:28.328Z,45
2017-01-07T08:23:41.065Z,60
2017-01-07T08:33:53.774Z,80
2017-01-07T08:44:06.445Z,105
2017-01-07T08:54:19.090Z,160
2017-01-07T09:04:31.697Z,230
2017-01-07T09:14:44.176Z,275
2017-01-07T09:24:56.598Z,235
2017-01-07T09:35:08.979Z,260
2017-01-07T09:45:21.274Z,215
2017-01-07T09:55:33.577Z,180
2017-01-07T10:05:45.945Z,200
2017-01-07T10:15:58.296Z,175
2017-01-07T10:26:10.744Z,165
2017-01-07T10:36:23.166Z,205
2017-01-07T10:46:35.483Z,250
2017-01-07T10:56:47.802Z,275
2017-01-07T11:07:00.087Z,230
2017-01-07T11:17:12.340Z,230
2017-01-07T11:27:24.634Z,190
2017-01-07T11:37:36.885Z,225
2017-01-07T11:47:49.189Z,200
2017-01-07T11:58:01.419Z,270
2017-01-07T12:08:13.558Z,215
2017-01-07T12:18:25.817Z,180
2017-01-07T12:28:38.191Z,130
2017-01-07T12:38:50.609Z,115
2017-01-07T12:49:03.013Z,100
2017-01-07T12:59:15.515Z,90
2017-01-07T13:09:28.015Z,85
2017-01-07T13:19:40.424Z,70
2017-01-07T13:29:52.828Z,65
2017-01-07T13:40:05.236Z,70
2017-01-07T13:50:17.655Z,90
2017-01-07T14:00:30.053Z,80
2017-01-07T14:10:42.430Z,75
2017-01-07T14:20:54.809Z,55
2017-01-07T14:31:07.162Z,40
2017-01-07T14:41:19.556Z,40
2017-01-07T14:51:32.020Z,35
2017-01-07T15:01:44.529Z,30
2017-01-07T15:11:57.023Z,20
2017-01-07T15:22:09.538Z,10
2017-01-07T15:32:22.046Z,5
2017-01-07T15:42:34.590Z,0
2017-01-07T15:52:47.117Z,0
2017-01-07T16:02:59.649Z,0
2017-01-07T16:13:12.192Z,0
2017-01-07T16:23:24.762Z,0
2017-01-07T16:33:37.260Z,0
2017-01-07T16:43:49.749Z,0
2017-01-07T16:54:02.210Z,0
2017-01-07T17:04:14.658Z,0
2017-01-07T17:14:27.145Z,0
2017-01-07T17:24:39.586Z,0
2017-01-07T17:34:51.999Z,0
2017-01-07T17:45:04.448Z,0
2017-01-07T17:55:16.827Z,0
2017-01-07T18:05:29.176Z,0
2017-01-07T18:15:41.535Z,0
2017-01-07T18:25:53.835Z,0
2017-01-07T18:36:06.196Z,0
2017-01-07T18:46:18.510Z,0
2017-01-07T18:56:30.825Z,0
2017-01-07T19:06:43.175Z,0
2017-01-07T19:16:55.465Z,0
2017-01-07T19:27:07.732Z,0
2017-01-07T19:37:19.976Z,0
2017-01-07T19:47:32.293Z,0
2017-01-07T19:57:44.591Z,0
2017-01-07T20:07:56.898Z,0
2017-01-07T20:18:09.180Z,0
2017-01-07T20:28:21.464Z,0
2017-01-07T20:38:33.702Z,0
2017-01-07T20:48:46.031Z,0
2017-01-07T20:58:58.218Z,0
2017-01-07T21:09:10.425Z,0
2017-01-07T21:19:22.618Z,0
2017-01-07T21:29:34.854Z,0
2017-01-07T21:39:47.040Z,0
2017-01-07T21:49:59.184Z,0
2017-01-07T22:00:11.321Z,0
2017-01-07T22:10:23.529Z,0
2017-01-07T22:20:35.676Z,0
2017-01-07T22:30:47.828Z,0
2017-01-07T22:40:59.971Z,0
2017-01-07T22:51:12.100Z,0
2017-01-07T23:01:24.193Z,0
2017-01-07T23:11:36.345Z,0
2017-01-07T23:21:48.495Z,0
2017-01-07T23:32:00.642Z,0
2017-01-07T23:42:12.805Z,0
2017-01-07T23:52:25.013Z,0
